createdAt,value
2022-11-05T00:01:12.975Z,10.15
2022-11-05T00:04:00.484Z,5.57
2022-11-05T00:06:46.410Z,6.47
2022-11-05T00:09:33.444Z,5.82
2022-11-05T00:12:21.081Z,5.53
2022-11-05T00:15:06.832Z,5.72
2022-11-05T00:17:35.400Z,6.30
2022-11-05T00:20:06.216Z,5.82
2022-11-05T00:22:52.169Z,5.35
2022-11-05T00:25:22.027Z,5.43
2022-11-05T00:27:52.643Z,4.60
2022-11-05T00:30:23.279Z,5.93
2022-11-05T00:32:53.041Z,5.68
2022-11-05T00:35:23.535Z,5.80
2022-11-05T00:37:54.328Z,4.05
2022-11-05T00:40:22.790Z,4.05
2022-11-05T00:43:09.108Z,4.32
2022-11-05T00:45:38.362Z,5.75
2022-11-05T00:48:24.859Z,5.60
2022-11-05T00:50:54.662Z,4.13
2022-11-05T00:53:23.477Z,4.90
2022-11-05T00:55:51.914Z,6.13
2022-11-05T00:58:22.526Z,5.20
2022-11-05T01:00:52.521Z,3.88
2022-11-05T01:05:53.483Z,4.32
2022-11-05T01:08:25.195Z,5.28
2022-11-05T01:10:55.955Z,5.30
2022-11-05T01:13:27.222Z,4.03
2022-11-05T01:15:56.334Z,5.70
2022-11-05T01:18:25.669Z,5.50
2022-11-05T01:20:54.102Z,4.80
2022-11-05T01:23:23.850Z,4.57
2022-11-05T01:25:52.236Z,5.20
2022-11-05T01:28:20.687Z,5.93
2022-11-05T01:30:56.306Z,4.55
2022-11-05T01:33:24.803Z,5.40
2022-11-05T01:35:53.439Z,4.22
2022-11-05T01:38:22.091Z,5.10
2022-11-05T01:40:52.092Z,4.30
2022-11-05T01:45:55.472Z,3.97
2022-11-05T01:48:28.462Z,4.55
2022-11-05T01:51:00.187Z,4.97
2022-11-05T01:53:31.594Z,4.30
2022-11-05T01:56:05.963Z,3.90
2022-11-05T01:58:38.277Z,2.35
2022-11-05T02:01:06.919Z,2.58
2022-11-05T02:03:35.995Z,1.40
2022-11-05T02:06:09.215Z,2.15
2022-11-05T02:08:56.859Z,1.50
2022-11-05T02:11:26.716Z,1.38
2022-11-05T02:13:55.404Z,4.75
2022-11-05T02:16:38.587Z,1.02
2022-11-05T02:19:40.178Z,1.58
2022-11-05T02:22:30.026Z,0.73
2022-11-05T02:25:11.187Z,2.75
2022-11-05T02:28:04.920Z,1.73
2022-11-05T02:30:43.975Z,2.20
2022-11-05T02:33:29.785Z,1.65
2022-11-05T02:36:09.803Z,1.10
2022-11-05T02:38:43.977Z,1.35
2022-11-05T02:41:24.218Z,1.95
2022-11-05T02:44:04.250Z,2.38
2022-11-05T02:46:45.684Z,2.83
2022-11-05T02:49:25.782Z,2.22
2022-11-05T02:51:58.844Z,2.63
2022-11-05T02:54:34.939Z,1.95
2022-11-05T02:57:05.815Z,2.70
2022-11-05T02:59:34.294Z,2.03
2022-11-05T03:02:06.401Z,1.70
2022-11-05T03:04:35.051Z,1.73
2022-11-05T03:07:31.018Z,2.15
2022-11-05T03:10:32.624Z,1.83
2022-11-05T03:13:15.235Z,2.60
2022-11-05T03:15:54.410Z,1.73
2022-11-05T03:18:29.812Z,1.98
2022-11-05T03:21:03.848Z,2.75
2022-11-05T03:23:42.948Z,3.45
2022-11-05T03:26:17.444Z,2.40
2022-11-05T03:28:49.783Z,2.08
2022-11-05T03:31:19.819Z,2.17
2022-11-05T03:33:52.839Z,1.77
2022-11-05T03:36:26.911Z,2.05
2022-11-05T03:38:58.156Z,2.28
2022-11-05T03:41:27.337Z,3.00
2022-11-05T03:43:59.573Z,2.65
2022-11-05T03:46:31.420Z,2.50
2022-11-05T03:49:04.916Z,1.92
2022-11-05T03:51:43.516Z,2.20
2022-11-05T03:54:12.080Z,3.33
2022-11-05T03:56:47.625Z,1.90
2022-11-05T03:59:18.005Z,2.00
2022-11-05T04:01:46.700Z,2.60
2022-11-05T04:04:16.613Z,3.25
2022-11-05T04:07:02.459Z,3.83
2022-11-05T04:09:48.310Z,3.50
2022-11-05T04:12:34.207Z,4.88
2022-11-05T04:15:02.863Z,3.00
2022-11-05T04:17:30.334Z,3.88
2022-11-05T04:20:23.156Z,3.42
2022-11-05T04:23:19.655Z,3.10
2022-11-05T04:25:48.120Z,1.77
2022-11-05T04:28:16.666Z,2.53
2022-11-05T04:30:44.297Z,2.13
2022-11-05T04:33:15.306Z,2.20
2022-11-05T04:35:47.282Z,2.20
2022-11-05T04:38:17.234Z,3.75
2022-11-05T04:43:16.788Z,3.60
2022-11-05T04:45:46.003Z,4.05
2022-11-05T04:48:14.646Z,4.65
2022-11-05T04:50:43.084Z,3.20
2022-11-05T04:53:13.216Z,2.45
2022-11-05T04:55:41.984Z,3.17
2022-11-05T04:58:10.627Z,1.95
2022-11-05T05:00:39.247Z,2.38
2022-11-05T05:03:07.886Z,2.92
2022-11-05T05:05:36.695Z,3.38
2022-11-05T05:08:06.457Z,3.05
2022-11-05T05:10:36.301Z,2.22
2022-11-05T05:13:04.776Z,2.88
2022-11-05T05:15:33.178Z,3.60
2022-11-05T05:18:01.576Z,4.03
2022-11-05T05:20:47.311Z,2.90
2022-11-05T05:23:15.771Z,3.40
2022-11-05T05:25:45.601Z,3.00
2022-11-05T05:28:14.038Z,3.17
2022-11-05T05:30:42.443Z,2.63
2022-11-05T05:33:11.187Z,4.40
2022-11-05T05:35:39.785Z,3.38
2022-11-05T05:38:08.186Z,3.08
2022-11-05T05:40:36.825Z,3.33
2022-11-05T05:43:06.561Z,5.32
2022-11-05T05:45:36.060Z,2.72
2022-11-05T05:48:04.741Z,3.42
2022-11-05T05:50:33.185Z,3.35
2022-11-05T05:53:09.023Z,3.00
2022-11-05T05:55:37.702Z,3.28
2022-11-05T05:58:07.531Z,2.20
2022-11-05T06:00:36.007Z,2.30
2022-11-05T06:03:06.251Z,2.78
2022-11-05T06:05:34.797Z,2.78
2022-11-05T06:08:04.456Z,1.63
2022-11-05T06:10:33.071Z,2.00
2022-11-05T06:13:01.520Z,2.17
2022-11-05T06:15:35.708Z,2.55
2022-11-05T06:18:04.696Z,1.98
2022-11-05T06:20:33.114Z,1.92
2022-11-05T06:23:01.662Z,2.38
2022-11-05T06:25:30.124Z,1.77
2022-11-05T06:27:58.629Z,1.30
2022-11-05T06:30:27.249Z,2.22
2022-11-05T06:32:57.019Z,1.92
2022-11-05T06:35:25.413Z,1.23
2022-11-05T06:37:53.801Z,1.08
2022-11-05T06:40:22.166Z,1.25
2022-11-05T06:42:53.017Z,0.85
2022-11-05T06:45:21.976Z,1.23
2022-11-05T06:47:57.875Z,1.85
2022-11-05T06:50:27.817Z,0.77
2022-11-05T06:57:53.653Z,1.67
2022-11-05T07:00:22.882Z,1.10
2022-11-05T07:02:51.317Z,0.85
2022-11-05T07:05:21.145Z,1.42
2022-11-05T07:07:49.514Z,1.95
2022-11-05T07:10:19.435Z,1.63
2022-11-05T07:12:47.848Z,3.92
2022-11-05T07:15:16.369Z,4.57
2022-11-05T07:17:44.848Z,3.95
2022-11-05T07:20:13.268Z,2.65
2022-11-05T07:22:43.160Z,2.33
2022-11-05T07:25:11.593Z,3.13
2022-11-05T07:27:40.886Z,4.82
2022-11-05T07:30:11.404Z,2.75
2022-11-05T07:32:40.535Z,1.90
2022-11-05T07:35:10.597Z,2.33
2022-11-05T07:37:48.318Z,2.13
2022-11-05T07:40:19.147Z,1.77
2022-11-05T07:42:49.570Z,1.67
2022-11-05T07:45:18.131Z,1.45
2022-11-05T07:47:48.609Z,2.28
2022-11-05T07:50:18.394Z,2.85
2022-11-05T07:52:49.078Z,2.22
2022-11-05T07:55:18.612Z,4.22
2022-11-05T07:57:48.798Z,2.75
2022-11-05T08:00:19.905Z,3.78
2022-11-05T08:03:05.597Z,3.05
2022-11-05T08:05:37.543Z,4.55
2022-11-05T08:10:36.986Z,3.50
2022-11-05T08:13:06.607Z,3.95
2022-11-05T08:15:35.962Z,6.53
2022-11-05T08:18:06.481Z,5.15
2022-11-05T08:20:35.884Z,7.00
2022-11-05T08:23:04.297Z,6.55
2022-11-05T08:25:34.082Z,6.10
2022-11-05T08:30:33.569Z,7.72
2022-11-05T08:33:04.735Z,8.35
2022-11-05T08:35:34.892Z,8.73
2022-11-05T08:38:05.376Z,10.65
2022-11-05T08:40:36.750Z,9.35
2022-11-05T08:43:07.660Z,9.75
2022-11-05T08:45:38.495Z,12.73
2022-11-05T08:48:09.223Z,9.10
2022-11-05T08:50:38.128Z,8.90
2022-11-05T08:53:07.330Z,11.20
2022-11-05T08:55:38.414Z,12.90
2022-11-05T08:58:08.623Z,9.70
2022-11-05T09:00:37.723Z,8.68
2022-11-05T09:03:09.344Z,8.48
2022-11-05T09:05:39.947Z,9.77
2022-11-05T09:08:10.317Z,11.38
2022-11-05T09:10:40.754Z,9.45
2022-11-05T09:13:14.690Z,9.38
2022-11-05T09:15:46.652Z,8.73
2022-11-05T09:18:15.466Z,8.00
2022-11-05T09:20:44.266Z,7.07
2022-11-05T09:23:14.750Z,9.32
2022-11-05T09:25:45.220Z,8.68
2022-11-05T09:28:17.091Z,8.88
2022-11-05T09:30:47.337Z,6.32
2022-11-05T09:35:44.999Z,7.47
2022-11-05T09:38:13.532Z,8.93
2022-11-05T09:40:56.705Z,9.20
2022-11-05T09:43:31.891Z,7.50
2022-11-05T09:46:04.921Z,5.63
2022-11-05T09:48:35.010Z,7.88
2022-11-05T09:51:05.633Z,7.75
2022-11-05T09:53:42.100Z,8.43
2022-11-05T09:56:22.989Z,9.35
2022-11-05T09:58:57.464Z,10.75
2022-11-05T10:01:30.130Z,6.40
2022-11-05T10:04:02.662Z,4.90
2022-11-05T10:06:31.559Z,9.57
2022-11-05T10:09:06.810Z,7.93
2022-11-05T10:11:41.165Z,8.25
2022-11-05T10:14:17.768Z,3.67
2022-11-05T10:16:52.031Z,6.13
2022-11-05T10:19:25.032Z,5.97
2022-11-05T10:22:11.471Z,5.70
2022-11-05T10:24:43.564Z,5.68
2022-11-05T10:27:19.216Z,7.38
2022-11-05T10:29:49.138Z,8.45
2022-11-05T10:32:26.875Z,7.20
2022-11-05T10:34:58.400Z,11.32
2022-11-05T10:37:28.389Z,8.38
2022-11-05T10:39:57.078Z,10.65
2022-11-05T10:42:47.791Z,8.05
2022-11-05T10:45:26.527Z,11.13
2022-11-05T10:48:06.151Z,7.78
2022-11-05T10:50:35.104Z,7.57
2022-11-05T10:53:08.472Z,8.20
2022-11-05T10:55:39.408Z,8.48
2022-11-05T10:58:11.617Z,8.43
2022-11-05T11:00:40.516Z,8.13
2022-11-05T11:03:34.510Z,7.88
2022-11-05T11:06:07.599Z,7.82
2022-11-05T11:08:37.562Z,7.15
2022-11-05T11:13:52.860Z,6.90
2022-11-05T11:16:23.197Z,6.22
2022-11-05T11:18:55.552Z,6.82
2022-11-05T11:21:24.930Z,6.60
2022-11-05T11:23:57.687Z,5.18
2022-11-05T11:26:29.240Z,6.20
2022-11-05T11:29:01.560Z,8.95
2022-11-05T11:31:32.512Z,7.35
2022-11-05T11:34:03.738Z,5.85
2022-11-05T11:36:39.549Z,5.85
2022-11-05T11:39:08.587Z,5.97
2022-11-05T11:41:41.851Z,7.95
2022-11-05T11:44:17.540Z,6.60
2022-11-05T11:46:49.607Z,8.05
2022-11-05T11:49:31.957Z,6.05
2022-11-05T11:52:04.594Z,6.15
2022-11-05T11:54:34.672Z,6.95
2022-11-05T11:57:03.820Z,6.70
2022-11-05T12:00:02.365Z,7.53
2022-11-05T12:02:56.005Z,8.10
2022-11-05T12:05:40.107Z,8.35
2022-11-05T12:08:23.715Z,7.45
2022-11-05T12:10:58.866Z,6.57
2022-11-05T12:13:52.618Z,7.40
2022-11-05T12:16:32.719Z,6.40
2022-11-05T12:19:11.690Z,5.70
2022-11-05T12:21:53.963Z,5.75
2022-11-05T12:24:47.585Z,6.32
2022-11-05T12:27:29.564Z,7.13
2022-11-05T12:30:03.472Z,5.55
2022-11-05T12:32:43.604Z,6.57
2022-11-05T12:35:45.783Z,7.05
2022-11-05T12:38:30.644Z,7.45
2022-11-05T12:41:10.640Z,7.88
2022-11-05T12:43:49.907Z,6.70
2022-11-05T12:46:28.813Z,8.38
2022-11-05T12:49:30.851Z,7.43
2022-11-05T12:52:16.975Z,8.00
2022-11-05T12:55:01.849Z,10.23
2022-11-05T12:57:33.061Z,8.00
2022-11-05T13:00:07.392Z,10.63
2022-11-05T13:02:41.881Z,8.50
2022-11-05T13:05:19.200Z,7.85
2022-11-05T13:07:54.784Z,9.27
2022-11-05T13:10:29.313Z,9.25
2022-11-05T13:13:04.724Z,8.43
2022-11-05T13:15:36.927Z,9.27
2022-11-05T13:18:10.690Z,8.88
2022-11-05T13:20:45.739Z,7.80
2022-11-05T13:23:18.744Z,8.90
2022-11-05T13:25:52.432Z,9.18
2022-11-05T13:28:32.886Z,7.38
2022-11-05T13:31:05.323Z,7.15
2022-11-05T13:33:39.114Z,8.73
2022-11-05T13:36:31.768Z,7.93
2022-11-05T13:39:09.109Z,8.57
2022-11-05T13:41:51.060Z,8.77
2022-11-05T13:44:43.068Z,8.77
2022-11-05T13:47:30.079Z,9.15
2022-11-05T13:50:26.324Z,8.32
2022-11-05T13:53:24.243Z,7.05
2022-11-05T13:56:00.808Z,6.93
2022-11-05T13:58:47.939Z,8.77
2022-11-05T14:01:30.226Z,7.78
2022-11-05T14:06:30.046Z,9.02
2022-11-05T14:09:02.704Z,7.97
2022-11-05T14:11:34.551Z,8.30
2022-11-05T14:14:05.631Z,8.82
2022-11-05T14:16:50.686Z,10.95
2022-11-05T14:19:33.376Z,8.77
2022-11-05T14:22:38.720Z,10.57
2022-11-05T14:25:43.445Z,10.55
2022-11-05T14:28:43.154Z,12.15
2022-11-05T14:32:02.507Z,9.20
2022-11-05T14:34:21.983Z,8.95
2022-11-05T14:37:30.284Z,7.80
2022-11-05T14:40:24.227Z,10.98
2022-11-05T14:42:55.295Z,10.65
2022-11-05T14:45:29.617Z,9.60
2022-11-05T14:48:00.112Z,9.43
2022-11-05T14:50:34.565Z,11.63
2022-11-05T14:53:11.465Z,10.38
2022-11-05T14:55:42.398Z,10.75
2022-11-05T14:58:33.120Z,12.95
2022-11-05T15:01:05.319Z,9.82
2022-11-05T15:03:47.461Z,10.32
2022-11-05T15:06:26.088Z,12.38
2022-11-05T15:09:21.570Z,11.40
2022-11-05T15:12:00.446Z,10.40
2022-11-05T15:14:33.517Z,10.18
2022-11-05T15:17:14.655Z,9.90
2022-11-05T15:19:43.954Z,7.68
2022-11-05T15:22:25.874Z,8.55
2022-11-05T15:24:54.486Z,15.35
2022-11-05T15:27:43.971Z,10.65
2022-11-05T15:30:16.814Z,10.30
2022-11-05T15:32:46.798Z,12.27
2022-11-05T15:35:21.325Z,10.80
2022-11-05T15:37:54.800Z,11.68
2022-11-05T15:40:29.557Z,10.13
2022-11-05T15:43:25.110Z,11.38
2022-11-05T15:46:05.839Z,12.07
2022-11-05T15:48:37.021Z,10.35
2022-11-05T15:51:05.869Z,9.35
2022-11-05T15:54:08.210Z,9.73
2022-11-05T15:56:30.846Z,10.35
2022-11-05T15:59:01.584Z,12.82
2022-11-05T16:01:32.223Z,13.45
2022-11-05T16:04:11.673Z,14.68
2022-11-05T16:06:42.871Z,11.63
2022-11-05T16:09:22.158Z,10.82
2022-11-05T16:12:12.109Z,9.68
2022-11-05T16:14:41.409Z,10.35
2022-11-05T16:17:20.639Z,12.02
2022-11-05T16:19:51.784Z,7.95
2022-11-05T16:22:20.893Z,11.20
2022-11-05T16:24:50.050Z,11.90
2022-11-05T16:27:20.559Z,9.95
2022-11-05T16:29:52.560Z,12.77
2022-11-05T16:32:30.234Z,10.50
2022-11-05T16:35:03.838Z,10.30
2022-11-05T16:37:39.671Z,14.02
2022-11-05T16:40:15.077Z,10.60
2022-11-05T16:42:43.736Z,11.93
2022-11-05T16:45:14.761Z,11.95
2022-11-05T16:47:44.966Z,10.20
2022-11-05T16:50:22.027Z,9.75
2022-11-05T16:52:51.107Z,9.85
2022-11-05T16:55:20.130Z,10.20
2022-11-05T16:57:51.791Z,10.52
2022-11-05T17:00:22.244Z,9.88
2022-11-05T17:02:51.303Z,11.77
2022-11-05T17:05:24.757Z,10.20
2022-11-05T17:07:53.822Z,10.95
2022-11-05T17:10:24.330Z,10.45
2022-11-05T17:12:53.150Z,12.60
2022-11-05T17:15:24.886Z,10.55
2022-11-05T17:17:54.583Z,11.50
2022-11-05T17:20:40.317Z,10.45
2022-11-05T17:23:11.898Z,12.20
2022-11-05T17:25:41.562Z,10.63
2022-11-05T17:28:11.115Z,11.75
2022-11-05T17:30:41.627Z,11.40
2022-11-05T17:33:12.103Z,11.55
2022-11-05T17:35:43.113Z,10.45
2022-11-05T17:38:12.012Z,9.43
2022-11-05T17:40:41.463Z,9.98
2022-11-05T17:43:10.833Z,16.55
2022-11-05T17:45:43.863Z,12.10
2022-11-05T17:48:12.600Z,12.60
2022-11-05T17:50:43.466Z,13.15
2022-11-05T17:53:13.062Z,11.57
2022-11-05T17:55:42.684Z,11.00
2022-11-05T17:58:11.385Z,15.70
2022-11-05T18:00:41.048Z,16.27
2022-11-05T18:03:11.204Z,15.30
2022-11-05T18:05:42.581Z,13.13
2022-11-05T18:08:12.425Z,11.93
2022-11-05T18:10:42.080Z,10.55
2022-11-05T18:13:11.463Z,10.13
2022-11-05T18:15:41.190Z,7.38
2022-11-05T18:18:10.129Z,12.38
2022-11-05T18:20:38.980Z,10.60
2022-11-05T18:23:08.973Z,10.45
2022-11-05T18:25:37.565Z,10.13
2022-11-05T18:28:06.029Z,8.85
2022-11-05T18:30:35.199Z,10.45
2022-11-05T18:33:03.714Z,11.35
2022-11-05T18:35:32.310Z,11.57
2022-11-05T18:38:00.731Z,10.20
2022-11-05T18:40:30.517Z,12.60
2022-11-05T18:42:58.959Z,9.93
2022-11-05T18:45:29.907Z,11.68
2022-11-05T18:48:00.251Z,10.65
2022-11-05T18:50:28.769Z,9.43
2022-11-05T18:52:57.420Z,11.63
2022-11-05T18:55:26.003Z,11.10
2022-11-05T18:57:55.823Z,11.18
2022-11-05T19:00:24.336Z,11.80
2022-11-05T19:02:53.015Z,12.32
2022-11-05T19:05:29.152Z,11.60
2022-11-05T19:07:58.386Z,12.98
2022-11-05T19:10:27.449Z,15.02
2022-11-05T19:12:57.284Z,16.08
2022-11-05T19:15:25.803Z,18.95
2022-11-05T19:17:54.199Z,14.52
2022-11-05T19:20:22.730Z,12.35
2022-11-05T19:22:51.171Z,14.07
2022-11-05T19:25:19.749Z,14.52
2022-11-05T19:27:48.462Z,13.88
2022-11-05T19:30:18.515Z,16.73
2022-11-05T19:35:18.604Z,15.52
2022-11-05T19:37:47.045Z,13.77
2022-11-05T19:40:15.433Z,17.60
2022-11-05T19:42:43.850Z,15.30
2022-11-05T19:45:38.390Z,14.73
2022-11-05T19:48:02.303Z,16.30
2022-11-05T19:50:31.664Z,20.23
2022-11-05T19:53:00.159Z,20.40
2022-11-05T19:55:28.632Z,19.55
2022-11-05T19:57:57.039Z,20.45
2022-11-05T20:00:25.533Z,20.40
2022-11-05T20:02:54.260Z,21.50
2022-11-05T20:05:25.112Z,16.42
2022-11-05T20:07:53.508Z,20.70
2022-11-05T20:10:23.336Z,20.90
2022-11-05T20:12:54.183Z,25.35
2022-11-05T20:15:22.756Z,24.77
2022-11-05T20:17:52.257Z,24.38
2022-11-05T20:20:24.883Z,21.60
2022-11-05T20:22:59.198Z,22.00
2022-11-05T20:25:27.667Z,21.88
2022-11-05T20:27:57.735Z,27.50
2022-11-05T20:30:28.370Z,26.58
2022-11-05T20:32:56.966Z,23.60
2022-11-05T20:35:26.727Z,24.38
2022-11-05T20:37:55.121Z,19.35
2022-11-05T20:40:23.512Z,16.75
2022-11-05T20:42:51.983Z,18.20
2022-11-05T20:45:20.409Z,22.52
2022-11-05T20:47:48.842Z,20.42
2022-11-05T20:50:17.456Z,20.27
2022-11-05T20:52:47.232Z,15.85
2022-11-05T20:55:15.906Z,18.02
2022-11-05T20:57:44.449Z,20.58
2022-11-05T21:00:16.573Z,21.13
2022-11-05T21:02:47.325Z,19.23
2022-11-05T21:05:15.824Z,19.27
2022-11-05T21:07:47.942Z,17.55
2022-11-05T21:10:16.538Z,16.83
2022-11-05T21:12:45.722Z,20.58
2022-11-05T21:15:14.907Z,19.23
2022-11-05T21:17:44.814Z,22.83
2022-11-05T21:20:15.306Z,19.00
2022-11-05T21:22:45.322Z,20.25
2022-11-05T21:27:44.547Z,16.77
2022-11-05T21:30:13.695Z,18.02
2022-11-05T21:32:44.155Z,18.77
2022-11-05T21:35:12.624Z,14.63
2022-11-05T21:37:41.024Z,18.98
2022-11-05T21:40:10.872Z,18.48
2022-11-05T21:42:40.644Z,19.00
2022-11-05T21:45:09.676Z,18.60
2022-11-05T21:47:41.061Z,14.77
2022-11-05T21:50:16.104Z,18.52
2022-11-05T21:53:13.977Z,17.02
2022-11-05T21:56:00.033Z,16.35
2022-11-05T21:58:47.448Z,17.25
2022-11-05T22:01:15.835Z,16.38
2022-11-05T22:03:44.238Z,17.85
2022-11-05T22:06:12.639Z,18.48
2022-11-05T22:08:41.100Z,16.58
2022-11-05T22:11:09.498Z,19.65
2022-11-05T22:13:40.460Z,18.58
2022-11-05T22:16:09.886Z,17.60
2022-11-05T22:18:40.035Z,18.65
2022-11-05T22:21:15.816Z,18.83
2022-11-05T22:23:44.215Z,17.65
2022-11-05T22:26:12.663Z,17.25
2022-11-05T22:28:42.421Z,15.18
2022-11-05T22:31:13.365Z,15.93
2022-11-05T22:33:42.122Z,16.20
2022-11-05T22:36:11.785Z,17.00
2022-11-05T22:38:40.847Z,17.05
2022-11-05T22:41:13.913Z,19.95
2022-11-05T22:43:46.311Z,15.48
2022-11-05T22:46:17.404Z,16.30
2022-11-05T22:48:46.528Z,17.40
2022-11-05T22:51:16.786Z,16.25
2022-11-05T22:53:45.312Z,16.42
2022-11-05T22:56:16.418Z,17.58
2022-11-05T22:58:52.546Z,17.73
2022-11-05T23:01:22.121Z,15.93
2022-11-05T23:03:52.840Z,16.88
2022-11-05T23:06:43.352Z,16.58
2022-11-05T23:09:33.044Z,14.27
2022-11-05T23:12:06.281Z,19.58
2022-11-05T23:14:37.637Z,18.40
2022-11-05T23:17:23.924Z,17.42
2022-11-05T23:20:24.370Z,18.35
2022-11-05T23:23:10.865Z,17.02
2022-11-05T23:25:39.336Z,17.05
2022-11-05T23:28:10.173Z,13.40
2022-11-05T23:31:05.024Z,16.02
2022-11-05T23:33:34.834Z,14.52
2022-11-05T23:36:17.492Z,16.00
2022-11-05T23:38:46.193Z,14.73
2022-11-05T23:41:31.981Z,14.93
2022-11-05T23:44:17.955Z,13.02
2022-11-05T23:47:05.412Z,11.02
2022-11-05T23:49:33.904Z,13.13
2022-11-05T23:52:02.351Z,13.60
2022-11-05T23:54:30.771Z,11.73
2022-11-05T23:56:59.189Z,15.13
2022-11-05T23:59:27.631Z,12.20
